Time;durP1;ratioP1;P1;durP2;ratioP2;P2;SDS_P1;SDS_P2;PMS_P1;PMS_P2;Temp;Humidity;BMP_temperature;BMP_pressure;BME280_temperature;BME280_humidity;BME280_pressure;Samples;Min_cycle;Max_cycle;Signal;HPM_P1;HPM_P2
2023/09/18 00:01:19;;;;;;;6.18;4.25;;;18.80;96.50;;;;;;5004089;28;20046;-84
2023/09/18 00:03:55;;;;;;;6.25;4.30;;;18.80;96.50;;;;;;5036881;28;20140;-84
2023/09/18 00:06:27;;;;;;;8.57;3.90;;;18.80;96.50;;;;;;5018699;28;20503;-82
2023/09/18 00:09:27;;;;;;;5.50;3.60;;;18.80;96.50;;;;;;5032156;28;20040;-82
2023/09/18 00:12:03;;;;;;;4.53;3.47;;;18.80;96.50;;;;;;5033812;28;20079;-82
2023/09/18 00:14:37;;;;;;;5.68;3.58;;;18.80;96.60;;;;;;5051557;28;20127;-82
2023/09/18 00:17:08;;;;;;;5.72;3.83;;;18.70;96.50;;;;;;5046023;28;20121;-82
2023/09/18 00:19:46;;;;;;;6.03;3.88;;;18.80;96.60;;;;;;5015708;28;20432;-82
2023/09/18 00:22:24;;;;;;;6.03;3.72;;;18.80;96.60;;;;;;5046849;28;20127;-82
2023/09/18 00:25:16;;;;;;;5.72;3.47;;;18.80;96.60;;;;;;5018607;28;20049;-81
2023/09/18 00:27:43;;;;;;;5.75;3.70;;;18.80;96.60;;;;;;5060112;28;20068;-82
2023/09/18 00:30:51;;;;;;;6.90;4.25;;;18.80;96.60;;;;;;5045874;28;20046;-82
2023/09/18 00:41:03;;;;;;;7.10;3.83;;;18.80;96.50;;;;;;5037137;28;20053;-82
2023/09/18 00:43:39;;;;;;;4.88;3.00;;;18.70;96.60;;;;;;5023397;28;20033;-83
2023/09/18 00:46:14;;;;;;;4.75;3.33;;;18.70;96.50;;;;;;5045107;28;20077;-83
2023/09/18 00:49:09;;;;;;;5.72;3.75;;;18.70;96.60;;;;;;5016427;28;20069;-83
2023/09/18 00:51:44;;;;;;;5.43;3.47;;;18.70;96.60;;;;;;5036073;28;20095;-83
2023/09/18 00:54:26;;;;;;;6.07;4.50;;;18.80;96.60;;;;;;5031562;28;20045;-83
2023/09/18 00:57:03;;;;;;;5.53;3.88;;;18.80;96.60;;;;;;5038724;28;20559;-83
2023/09/18 00:59:33;;;;;;;6.28;3.97;;;18.80;96.60;;;;;;5014866;28;20037;-83
2023/09/18 01:02:14;;;;;;;6.38;3.78;;;18.80;96.60;;;;;;5032511;28;20099;-83
2023/09/18 01:04:52;;;;;;;5.53;4.43;;;18.80;96.60;;;;;;5028884;28;20052;-83
2023/09/18 01:07:30;;;;;;;6.32;3.92;;;18.80;96.60;;;;;;5031243;28;20104;-83
2023/09/18 01:10:08;;;;;;;5.55;4.05;;;18.70;96.60;;;;;;5053032;28;20052;-83
2023/09/18 01:13:18;;;;;;;7.15;4.25;;;18.80;96.60;;;;;;5030816;28;20057;-83
2023/09/18 01:16:29;;;;;;;5.05;3.65;;;18.80;96.60;;;;;;5040727;28;20087;-83
2023/09/18 01:19:03;;;;;;;;;;;18.80;96.60;;;;;;5031051;28;20049;-83
2023/09/18 01:21:47;;;;;;;6.53;3.85;;;18.70;96.60;;;;;;5044169;28;19924;-82
2023/09/18 01:24:23;;;;;;;6.03;4.13;;;18.70;96.60;;;;;;5007520;28;20041;-82
2023/09/18 01:27:19;;;;;;;5.50;3.88;;;18.70;96.60;;;;;;5019953;28;20102;-82
2023/09/18 01:29:53;;;;;;;6.75;4.38;;;18.70;96.60;;;;;;5050627;28;20049;-82
2023/09/18 01:32:32;;;;;;;7.50;5.03;;;18.70;96.70;;;;;;5022139;28;20103;-82
2023/09/18 01:35:15;;;;;;;6.20;4.50;;;18.70;96.70;;;;;;5041374;28;20055;-82
2023/09/18 01:37:55;;;;;;;5.75;4.03;;;18.80;96.70;;;;;;5038863;28;20041;-83
2023/09/18 01:40:45;;;;;;;5.93;3.92;;;18.80;96.70;;;;;;4995904;28;20047;-83
2023/09/18 01:43:46;;;;;;;7.35;4.50;;;18.70;96.60;;;;;;4983064;28;20050;-83
2023/09/18 01:46:16;;;;;;;6.07;4.25;;;18.80;96.60;;;;;;4945641;28;20488;-82
2023/09/18 01:48:55;;;;;;;5.88;4.20;;;18.70;96.70;;;;;;4975999;28;20173;-83
2023/09/18 01:51:30;;;;;;;5.85;4.00;;;18.80;96.70;;;;;;4989212;28;20039;-83
2023/09/18 01:54:06;;;;;;;5.63;4.22;;;18.80;96.70;;;;;;4970324;28;20052;-83
2023/09/18 01:57:04;;;;;;;5.93;4.65;;;18.80;96.70;;;;;;4950436;28;20272;-83
2023/09/18 01:59:57;;;;;;;4.88;3.70;;;18.80;96.70;;;;;;4957316;28;20054;-83
2023/09/18 02:03:06;;;;;;;6.25;4.20;;;18.80;96.70;;;;;;4956208;28;20451;-83
2023/09/18 02:06:00;;;;;;;6.95;4.82;;;18.80;96.70;;;;;;5056348;28;20045;-83
2023/09/18 02:08:28;;;;;;;6.97;4.05;;;18.80;96.70;;;;;;5041210;28;20041;-83
2023/09/18 02:11:13;;;;;;;6.00;4.53;;;18.80;96.70;;;;;;5074113;28;20045;-83
2023/09/18 02:13:47;;;;;;;5.90;4.15;;;18.80;96.70;;;;;;5024764;28;20562;-84
2023/09/18 02:16:35;;;;;;;5.13;3.55;;;18.80;96.70;;;;;;5010066;28;21045;-83
2023/09/18 02:19:03;;;;;;;6.60;4.18;;;18.80;96.90;;;;;;5044622;28;20071;-83
2023/09/18 02:21:41;;;;;;;5.75;3.60;;;18.80;96.70;;;;;;5054197;28;20037;-83
2023/09/18 02:24:19;;;;;;;5.87;3.13;;;18.80;96.70;;;;;;5043834;28;20045;-83
2023/09/18 02:26:57;;;;;;;6.97;4.00;;;18.80;96.70;;;;;;5043497;28;20068;-83
2023/09/18 02:29:26;;;;;;;6.30;4.20;;;18.80;96.70;;;;;;5033238;28;20053;-83
2023/09/18 02:31:57;;;;;;;6.55;4.30;;;18.80;96.70;;;;;;5032557;28;20108;-83
2023/09/18 02:34:39;;;;;;;6.03;4.30;;;18.80;96.70;;;;;;5016281;28;20538;-83
2023/09/18 02:37:13;;;;;;;6.60;4.40;;;18.80;96.70;;;;;;5016225;28;20041;-83
2023/09/18 02:39:57;;;;;;;6.07;3.80;;;18.90;96.70;;;;;;4997319;28;20133;-83
2023/09/18 02:42:24;;;;;;;5.18;3.70;;;18.90;96.90;;;;;;5023300;28;20050;-83
2023/09/18 02:44:55;;;;;;;5.25;3.88;;;18.90;96.60;;;;;;4970371;28;20053;-83
2023/09/18 02:47:31;;;;;;;5.43;3.80;;;18.90;96.60;;;;;;5009832;28;20041;-83
2023/09/18 02:49:58;;;;;;;5.85;3.92;;;19.00;96.60;;;;;;4988001;28;20538;-83
2023/09/18 02:52:37;;;;;;;8.43;4.57;;;18.90;96.60;;;;;;5015758;28;20053;-83
2023/09/18 02:55:07;;;;;;;6.18;3.83;;;19.00;96.60;;;;;;5004799;28;20078;-83
2023/09/18 02:57:37;;;;;;;5.70;4.07;;;19.00;96.60;;;;;;4976755;28;20128;-82
2023/09/18 03:00:05;;;;;;;6.18;4.00;;;19.00;96.60;;;;;;4968271;28;20049;-82
2023/09/18 03:02:32;;;;;;;5.22;3.58;;;19.00;96.60;;;;;;4988670;28;20046;-82
2023/09/18 03:05:00;;;;;;;6.18;4.13;;;19.00;96.60;;;;;;4986617;28;20049;-82
2023/09/18 03:07:29;;;;;;;5.90;3.70;;;19.00;96.60;;;;;;5033259;28;20129;-82
2023/09/18 03:10:22;;;;;;;7.70;4.25;;;19.00;96.60;;;;;;4954176;28;20479;-82
2023/09/18 03:13:13;;;;;;;5.20;3.80;;;19.00;96.60;;;;;;4977929;28;20046;-82
2023/09/18 03:15:57;;;;;;;5.30;3.53;;;19.00;96.50;;;;;;4989366;28;20532;-82
2023/09/18 03:18:30;;;;;;;5.70;3.42;;;19.00;96.60;;;;;;4938288;28;20118;-82
2023/09/18 03:21:06;;;;;;;5.60;4.03;;;19.00;96.60;;;;;;4939285;28;20050;-82
2023/09/18 03:24:04;;;;;;;;;;;19.00;96.60;;;;;;4953414;28;20066;-82
2023/09/18 03:27:10;;;;;;;5.00;3.38;;;18.90;96.60;;;;;;4934351;29;20451;-82
2023/09/18 03:30:23;;;;;;;5.70;3.88;;;18.90;96.60;;;;;;4914723;28;20058;-82
2023/09/18 03:37:26;;;;;;;4.97;3.22;;;19.00;96.50;;;;;;4871398;29;20055;-83
2023/09/18 03:40:07;;;;;;;4.45;3.33;;;19.10;96.50;;;;;;4858935;29;20467;-83
2023/09/18 03:42:56;;;;;;;5.95;4.30;;;19.10;96.50;;;;;;4867604;29;20070;-83
2023/09/18 03:45:36;;;;;;;5.93;3.75;;;19.10;96.50;;;;;;4944946;28;20084;-83
2023/09/18 03:48:03;;;;;;;5.95;3.97;;;19.10;96.50;;;;;;4923583;28;20049;-82
2023/09/18 03:50:37;;;;;;;5.32;2.90;;;19.10;96.50;;;;;;4990788;28;20132;-83
2023/09/18 03:53:13;;;;;;;6.57;3.22;;;19.10;96.50;;;;;;5034272;28;20036;-83
2023/09/18 03:56:31;;;;;;;5.13;3.50;;;19.20;96.50;;;;;;5031801;28;20514;-83
2023/09/18 03:59:06;;;;;;;6.60;4.00;;;19.20;96.50;;;;;;5036759;28;20486;-83
2023/09/18 04:01:52;;;;;;;6.15;3.92;;;19.20;96.50;;;;;;5031941;28;20049;-83
2023/09/18 04:04:36;;;;;;;7.57;4.65;;;19.20;96.50;;;;;;5031941;28;20065;-82
2023/09/18 04:07:08;;;;;;;5.53;2.97;;;19.10;96.50;;;;;;5030753;28;20075;-82
2023/09/18 04:09:45;;;;;;;5.15;3.40;;;19.10;96.50;;;;;;5051844;28;20550;-82
2023/09/18 04:12:15;;;;;;;5.30;3.58;;;19.20;96.60;;;;;;5041372;28;20044;-82
2023/09/18 04:14:52;;;;;;;4.63;2.88;;;19.10;96.60;;;;;;5020802;28;20087;-82
2023/09/18 04:17:28;;;;;;;5.68;3.85;;;19.10;96.60;;;;;;5035995;28;20033;-82
2023/09/18 04:20:12;;;;;;;5.97;4.00;;;19.10;96.70;;;;;;5049442;28;20048;-81
2023/09/18 04:22:43;;;;;;;4.45;3.00;;;19.10;96.70;;;;;;5033200;28;20129;-82
2023/09/18 04:25:26;;;;;;;4.57;3.10;;;19.10;96.70;;;;;;5045816;28;20499;-82
2023/09/18 04:28:02;;;;;;;5.78;3.25;;;19.10;96.70;;;;;;5016272;28;20049;-82
2023/09/18 04:33:45;;;;;;;4.63;2.75;;;19.10;96.70;;;;;;5047061;28;20048;-82
2023/09/18 04:36:34;;;;;;;5.20;3.00;;;19.10;96.70;;;;;;5061681;28;20037;-82
2023/09/18 04:39:34;;;;;;;5.82;3.72;;;19.10;96.80;;;;;;5038695;28;20491;-82
2023/09/18 04:42:12;;;;;;;6.30;3.53;;;19.00;96.80;;;;;;5024143;28;20491;-82
2023/09/18 04:44:58;;;;;;;5.07;4.18;;;19.00;96.80;;;;;;5013488;28;20099;-82
2023/09/18 04:47:35;;;;;;;5.47;3.40;;;19.00;96.80;;;;;;5042288;28;20126;-81
2023/09/18 04:50:05;;;;;;;5.13;3.28;;;19.00;96.80;;;;;;5032449;28;20083;-82
2023/09/18 04:52:51;;;;;;;5.18;2.80;;;18.90;96.90;;;;;;5045417;28;20041;-81
2023/09/18 04:55:29;;;;;;;;;;;18.90;96.90;;;;;;5023456;28;20060;-81
2023/09/18 04:58:01;;;;;;;4.65;2.97;;;18.90;96.90;;;;;;5045127;28;20040;-81
2023/09/18 05:00:49;;;;;;;5.05;2.92;;;18.80;96.90;;;;;;5041866;28;20452;-81
2023/09/18 05:03:45;;;;;;;5.07;2.55;;;18.80;96.90;;;;;;5021764;28;20033;-81
2023/09/18 05:06:16;;;;;;;5.88;3.45;;;18.90;97.00;;;;;;5025035;28;20458;-82
2023/09/18 05:08:54;;;;;;;6.05;3.65;;;18.90;96.90;;;;;;5018530;28;20414;-82
2023/09/18 05:11:34;;;;;;;6.38;3.67;;;19.00;96.90;;;;;;5051077;28;20110;-81
2023/09/18 05:14:01;;;;;;;8.07;4.05;;;19.10;97.00;;;;;;5023356;28;20127;-81
2023/09/18 05:16:50;;;;;;;6.13;3.03;;;19.20;96.80;;;;;;5046736;28;20041;-81
2023/09/18 05:19:46;;;;;;;5.22;3.22;;;19.20;96.70;;;;;;5028373;28;20049;-81
2023/09/18 05:26:28;;;;;;;7.45;3.28;;;19.30;96.60;;;;;;5042184;28;20487;-82
2023/09/18 05:29:02;;;;;;;5.38;3.80;;;19.30;96.70;;;;;;5029093;28;20131;-81
2023/09/18 05:31:37;;;;;;;6.20;3.83;;;19.40;96.70;;;;;;5016956;28;20495;-82
2023/09/18 05:34:42;;;;;;;8.70;4.35;;;19.50;96.70;;;;;;5049285;28;20418;-82
2023/09/18 05:37:11;;;;;;;7.85;4.00;;;19.50;96.70;;;;;;5021608;28;20093;-82
2023/09/18 05:39:47;;;;;;;6.40;4.20;;;19.40;96.70;;;;;;5001767;28;20057;-82
2023/09/18 05:45:36;;;;;;;7.85;4.47;;;19.40;96.80;;;;;;5020369;28;20041;-82
2023/09/18 05:48:07;;;;;;;9.80;5.05;;;19.30;96.90;;;;;;5041637;28;20033;-82
2023/09/18 05:50:59;;;;;;;7.25;4.95;;;19.30;97.10;;;;;;5043367;28;20046;-82
2023/09/18 05:53:47;;;;;;;8.20;4.70;;;19.40;97.10;;;;;;4946035;28;20051;-82
2023/09/18 06:00:37;;;;;;;6.72;4.50;;;19.30;97.20;;;;;;4967252;28;20049;-82
2023/09/18 06:03:12;;;;;;;6.07;4.20;;;19.40;97.20;;;;;;4995484;28;20173;-82
2023/09/18 06:06:21;;;;;;;7.18;4.50;;;19.30;97.20;;;;;;5000008;28;20136;-82
2023/09/18 06:08:57;;;;;;;6.47;3.72;;;19.40;97.20;;;;;;4997697;28;20580;-82
2023/09/18 06:11:35;;;;;;;6.35;3.65;;;19.40;97.20;;;;;;4987555;28;20073;-82
2023/09/18 06:14:15;;;;;;;5.32;2.88;;;19.40;97.20;;;;;;4998459;28;20050;-82
2023/09/18 06:16:43;;;;;;;4.70;2.90;;;19.40;97.30;;;;;;4993842;28;20057;-82
2023/09/18 06:20:34;;;;;;;5.90;3.70;;;19.40;97.30;;;;;;4989747;28;20060;-82
2023/09/18 06:23:10;;;;;;;6.82;3.28;;;19.40;97.30;;;;;;4989594;28;20046;-82
2023/09/18 06:29:58;;;;;;;4.07;2.63;;;19.50;97.30;;;;;;4977369;28;20401;-82
2023/09/18 06:32:49;;;;;;;6.05;3.10;;;19.50;97.20;;;;;;5007496;28;20065;-82
2023/09/18 06:35:25;;;;;;;5.60;2.25;;;19.60;97.20;;;;;;4941623;28;20067;-82
2023/09/18 06:38:00;;;;;;;4.80;2.80;;;19.60;97.20;;;;;;5043129;28;20074;-82
2023/09/18 06:40:36;;;;;;;3.47;2.20;;;19.60;97.20;;;;;;5044935;28;20083;-83
2023/09/18 06:43:42;;;;;;;5.30;2.17;;;19.70;97.20;;;;;;5024933;28;20053;-82
2023/09/18 06:46:37;;;;;;;3.35;1.88;;;19.70;97.10;;;;;;5059352;28;20064;-83
2023/09/18 06:49:51;;;;;;;3.83;2.05;;;19.80;97.20;;;;;;4984958;28;20068;-82
2023/09/18 06:52:34;;;;;;;3.75;2.20;;;19.70;97.10;;;;;;5015577;28;20411;-82
2023/09/18 06:59:57;;;;;;;4.78;2.55;;;19.70;97.10;;;;;;5012849;28;20446;-83
2023/09/18 07:02:52;;;;;;;3.40;2.05;;;19.80;97.10;;;;;;5010734;28;20148;-82
2023/09/18 07:06:10;;;;;;;3.35;2.15;;;19.80;97.10;;;;;;4974897;28;20086;-83
2023/09/18 07:08:56;;;;;;;4.32;1.65;;;19.80;97.00;;;;;;5003039;28;20041;-83
2023/09/18 07:11:31;;;;;;;3.53;2.22;;;19.90;97.00;;;;;;5040753;28;20045;-83
2023/09/18 07:13:58;;;;;;;3.17;1.80;;;19.90;96.90;;;;;;5020009;28;20061;-82
2023/09/18 07:16:45;;;;;;;4.07;2.45;;;20.00;96.90;;;;;;4982377;28;20038;-83
2023/09/18 07:23:41;;;;;;;4.05;1.85;;;20.10;96.80;;;;;;5016741;28;20049;-83
2023/09/18 07:30:48;;;;;;;4.45;1.70;;;20.10;96.60;;;;;;4943167;28;20473;-82
2023/09/18 07:33:34;;;;;;;3.83;1.60;;;20.20;96.50;;;;;;4956163;28;20056;-83
2023/09/18 07:36:55;;;;;;;3.42;1.48;;;20.20;96.50;;;;;;4982310;28;20045;-83
2023/09/18 07:39:43;;;;;;;4.38;1.02;;;20.30;96.50;;;;;;4995970;28;20041;-82
2023/09/18 07:42:11;;;;;;;1.98;0.80;;;20.30;96.40;;;;;;5001565;28;20041;-82
2023/09/18 07:44:39;;;;;;;3.83;1.27;;;20.30;96.40;;;;;;4993101;28;20109;-83
2023/09/18 07:47:06;;;;;;;2.05;1.10;;;20.30;96.40;;;;;;4989552;28;20089;-83
2023/09/18 07:49:33;;;;;;;2.00;1.13;;;20.40;96.40;;;;;;4995429;28;20046;-83
2023/09/18 07:52:01;;;;;;;2.40;0.73;;;20.40;96.40;;;;;;4993021;28;20042;-83
2023/09/18 07:54:28;;;;;;;2.22;1.00;;;20.40;96.30;;;;;;4991814;28;20382;-82
2023/09/18 07:56:56;;;;;;;2.88;1.23;;;20.40;96.30;;;;;;4980489;28;20042;-83
2023/09/18 07:59:25;;;;;;;3.15;1.52;;;20.50;96.20;;;;;;4996619;28;20144;-83
2023/09/18 08:01:54;;;;;;;2.10;1.13;;;20.50;96.10;;;;;;4965087;28;20452;-83
2023/09/18 08:04:24;;;;;;;2.80;1.25;;;20.50;96.10;;;;;;5005283;28;20080;-83
2023/09/18 08:06:52;;;;;;;2.75;1.08;;;20.50;96.10;;;;;;4996126;28;20053;-82
2023/09/18 08:09:20;;;;;;;2.88;0.95;;;20.50;96.00;;;;;;4995726;28;20495;-83
2023/09/18 08:11:49;;;;;;;2.63;0.80;;;20.50;96.00;;;;;;4996164;28;20057;-85
2023/09/18 08:14:20;;;;;;;2.30;1.05;;;20.50;96.00;;;;;;5012376;28;20399;-85
2023/09/18 08:16:49;;;;;;;2.42;0.93;;;20.60;95.90;;;;;;5010031;28;20076;-84
2023/09/18 08:19:16;;;;;;;1.83;0.90;;;20.60;95.80;;;;;;5021611;28;20037;-85
2023/09/18 08:21:44;;;;;;;2.70;1.23;;;20.70;95.70;;;;;;5016592;28;20100;-86
2023/09/18 08:24:12;;;;;;;2.38;1.10;;;20.70;95.70;;;;;;4979968;28;20145;-84
2023/09/18 08:26:44;;;;;;;2.75;0.90;;;20.70;95.60;;;;;;4965155;28;20053;-84
2023/09/18 08:29:11;;;;;;;2.03;0.70;;;20.80;95.50;;;;;;4995786;28;20065;-83
2023/09/18 08:31:39;;;;;;;1.83;1.00;;;20.80;95.50;;;;;;5005264;28;20081;-82
2023/09/18 08:34:06;;;;;;;1.88;0.63;;;20.90;95.50;;;;;;5029036;28;20419;-82
2023/09/18 08:36:36;;;;;;;1.35;0.77;;;20.90;95.40;;;;;;5044501;28;20455;-82
2023/09/18 08:39:05;;;;;;;2.97;0.75;;;21.00;95.30;;;;;;5041260;28;20056;-82
2023/09/18 08:41:41;;;;;;;1.92;0.80;;;21.00;95.20;;;;;;5026686;28;20129;-82
2023/09/18 08:44:09;;;;;;;1.70;0.73;;;21.00;95.20;;;;;;5045647;28;20486;-83
2023/09/18 08:46:37;;;;;;;1.70;0.90;;;21.00;95.10;;;;;;5035781;28;20499;-84
2023/09/18 08:49:06;;;;;;;1.38;0.68;;;21.10;95.10;;;;;;5015192;28;20057;-83
2023/09/18 08:51:36;;;;;;;1.30;0.57;;;21.10;94.90;;;;;;5045510;28;20411;-83
2023/09/18 08:54:08;;;;;;;1.95;1.00;;;21.10;94.90;;;;;;5027986;28;20206;-83
2023/09/18 08:56:35;;;;;;;1.98;0.80;;;21.10;95.00;;;;;;5033381;28;20037;-83
2023/09/18 08:59:05;;;;;;;2.45;0.68;;;21.10;94.70;;;;;;5043816;28;20040;-84
2023/09/18 09:01:32;;;;;;;1.30;0.60;;;21.10;94.70;;;;;;5032108;28;20038;-83
2023/09/18 09:04:00;;;;;;;2.10;0.80;;;21.10;94.70;;;;;;5008287;28;20044;-84
2023/09/18 09:06:27;;;;;;;1.35;0.73;;;21.10;94.60;;;;;;5021578;28;20446;-84
2023/09/18 09:08:55;;;;;;;1.30;0.57;;;21.10;94.60;;;;;;5038708;28;20139;-83
2023/09/18 09:11:22;;;;;;;2.72;0.82;;;21.20;94.50;;;;;;5019408;28;20103;-83
2023/09/18 09:14:11;;;;;;;1.63;0.60;;;21.20;94.40;;;;;;5021821;28;20100;-83
2023/09/18 09:16:40;;;;;;;2.85;0.80;;;21.30;94.20;;;;;;5043535;28;20037;-83
2023/09/18 09:19:10;;;;;;;0.95;0.52;;;21.30;94.30;;;;;;5030626;28;20056;-84
2023/09/18 09:21:43;;;;;;;2.10;0.60;;;21.30;94.20;;;;;;5004646;28;20480;-84
2023/09/18 09:24:14;;;;;;;2.95;0.70;;;21.40;94.20;;;;;;5031197;28;20038;-84
2023/09/18 09:26:42;;;;;;;1.20;0.52;;;21.40;94.00;;;;;;5042512;28;20053;-84
2023/09/18 09:29:20;;;;;;;1.63;0.60;;;21.40;94.00;;;;;;5037416;28;20044;-84
2023/09/18 09:31:50;;;;;;;2.28;0.68;;;21.50;93.80;;;;;;5056427;28;20546;-83
2023/09/18 09:34:26;;;;;;;4.00;0.60;;;21.40;93.90;;;;;;5029037;28;20044;-82
2023/09/18 09:36:55;;;;;;;1.23;0.63;;;21.50;93.90;;;;;;5051209;28;20056;-83
2023/09/18 09:39:24;;;;;;;1.85;0.60;;;21.50;93.90;;;;;;5050585;28;20056;-82
2023/09/18 09:41:53;;;;;;;2.40;0.70;;;21.50;93.70;;;;;;5035177;28;20044;-83
2023/09/18 09:44:28;;;;;;;1.92;0.40;;;21.60;93.70;;;;;;5025857;28;20045;-82
2023/09/18 09:46:59;;;;;;;1.40;0.70;;;21.60;93.70;;;;;;5029209;28;20056;-83
2023/09/18 09:49:44;;;;;;;2.58;0.50;;;21.60;93.60;;;;;;5036834;28;20073;-82
2023/09/18 09:52:24;;;;;;;1.40;0.63;;;21.50;93.60;;;;;;5038191;28;20055;-82
2023/09/18 09:54:51;;;;;;;1.85;0.60;;;21.50;93.60;;;;;;5035130;28;20041;-82
2023/09/18 09:57:21;;;;;;;2.22;0.65;;;21.50;93.90;;;;;;5011761;28;20403;-83
2023/09/18 09:59:49;;;;;;;1.95;0.85;;;21.50;93.60;;;;;;5035124;28;20455;-82
2023/09/18 10:02:22;;;;;;;1.25;0.43;;;21.60;93.50;;;;;;5046578;28;20033;-83
2023/09/18 10:04:50;;;;;;;1.67;0.60;;;21.70;93.50;;;;;;5033644;28;20033;-82
2023/09/18 10:07:18;;;;;;;1.50;0.40;;;21.70;93.40;;;;;;5048569;28;20048;-82
2023/09/18 10:09:48;;;;;;;1.83;1.00;;;21.70;93.30;;;;;;5043245;28;20041;-83
2023/09/18 10:12:21;;;;;;;1.15;0.50;;;21.80;93.20;;;;;;5048648;28;20084;-83
2023/09/18 10:14:55;;;;;;;2.47;0.75;;;21.90;93.10;;;;;;5025102;28;20057;-82
2023/09/18 10:17:30;;;;;;;1.40;0.43;;;21.90;92.80;;;;;;5034287;28;20048;-82
2023/09/18 10:20:21;;;;;;;2.03;0.70;;;22.00;92.80;;;;;;5015558;28;20091;-83
2023/09/18 10:22:53;;;;;;;2.40;0.68;;;22.30;92.50;;;;;;5037824;28;20095;-81
2023/09/18 10:25:32;;;;;;;2.17;0.60;;;22.50;92.20;;;;;;5036825;28;20087;-82
2023/09/18 10:28:12;;;;;;;2.42;0.68;;;22.60;91.90;;;;;;5045485;28;20069;-86
2023/09/18 10:30:40;;;;;;;3.65;0.63;;;22.60;91.80;;;;;;5023934;28;20045;-82
2023/09/18 10:33:09;;;;;;;2.95;0.95;;;22.50;91.60;;;;;;5034228;28;20049;-84
2023/09/18 10:35:37;;;;;;;3.03;0.90;;;22.40;91.60;;;;;;5031881;28;20041;-85
2023/09/18 10:38:07;;;;;;;2.80;0.93;;;22.30;91.60;;;;;;5024670;28;20045;-84
2023/09/18 10:40:36;;;;;;;3.15;1.02;;;22.40;91.40;;;;;;5021924;28;20519;-87
2023/09/18 10:43:14;;;;;;;3.13;1.10;;;22.40;91.30;;;;;;5053055;28;20041;-87
2023/09/18 10:45:44;;;;;;;2.00;0.90;;;22.50;91.20;;;;;;5040615;28;20045;-87
2023/09/18 10:48:13;;;;;;;3.00;1.23;;;22.60;91.10;;;;;;5033672;28;20510;-83
2023/09/18 10:50:47;;;;;;;2.20;1.23;;;22.70;90.90;;;;;;5032910;28;20099;-82
2023/09/18 10:53:15;;;;;;;3.00;1.60;;;22.70;90.70;;;;;;5048511;28;20076;-83
2023/09/18 10:55:44;;;;;;;2.75;1.35;;;22.70;90.60;;;;;;5041761;28;20041;-84
2023/09/18 10:58:22;;;;;;;3.33;1.17;;;22.80;90.20;;;;;;5037787;28;20052;-87
2023/09/18 11:00:57;;;;;;;4.15;1.20;;;22.70;90.30;;;;;;5042490;28;20074;-87
2023/09/18 11:03:27;;;;;;;2.92;1.17;;;22.70;90.50;;;;;;5067065;28;20037;-85
2023/09/18 11:06:14;;;;;;;6.57;1.65;;;22.60;90.50;;;;;;5034254;28;20060;-88
2023/09/18 11:08:51;;;;;;;4.53;2.05;;;22.60;90.00;;;;;;5024464;28;20131;-87
2023/09/18 11:11:20;;;;;;;2.58;1.13;;;22.40;90.00;;;;;;5027791;28;20132;-85
2023/09/18 11:13:56;;;;;;;3.78;1.40;;;22.40;90.20;;;;;;5022890;28;20447;-90
2023/09/18 11:16:26;;;;;;;5.20;1.75;;;22.40;89.10;;;;;;5032676;28;20133;-82
2023/09/18 11:19:05;;;;;;;2.45;0.93;;;22.30;88.90;;;;;;5020064;28;20050;-84
2023/09/18 11:21:33;;;;;;;2.65;1.50;;;22.30;89.40;;;;;;5044439;28;20041;-85
2023/09/18 11:24:22;;;;;;;2.83;0.90;;;22.20;89.80;;;;;;5041960;28;20095;-90
2023/09/18 11:26:52;;;;;;;3.30;1.40;;;22.30;89.50;;;;;;5048365;28;20458;-82
2023/09/18 11:29:31;;;;;;;3.70;1.27;;;22.50;89.40;;;;;;5045137;28;20484;-85
2023/09/18 11:32:01;;;;;;;1.60;1.15;;;22.60;88.60;;;;;;5047126;28;20151;-88
2023/09/18 11:34:34;;;;;;;3.00;1.40;;;22.70;88.80;;;;;;5028646;28;20049;-87
2023/09/18 11:37:25;;;;;;;3.42;1.10;;;22.70;88.20;;;;;;5028967;28;20140;-89
2023/09/18 11:40:00;;;;;;;3.15;1.40;;;22.60;88.20;;;;;;5037764;28;20036;-89
2023/09/18 11:42:28;;;;;;;3.55;1.50;;;22.40;88.70;;;;;;5039164;28;20050;-85
2023/09/18 11:45:03;;;;;;;2.80;1.42;;;22.30;89.20;;;;;;5038868;28;20044;-87
2023/09/18 11:47:58;;;;;;;5.82;1.73;;;22.10;89.60;;;;;;5023484;28;20069;-87
2023/09/18 11:50:30;;;;;;;5.28;1.60;;;21.90;89.70;;;;;;5032271;28;20056;-86
2023/09/18 11:52:58;;;;;;;2.92;1.48;;;21.80;89.80;;;;;;5033456;28;20049;-84
2023/09/18 11:55:25;;;;;;;3.58;1.90;;;21.70;90.00;;;;;;5000121;28;20140;-83
2023/09/18 11:58:13;;;;;;;2.55;1.35;;;21.60;90.10;;;;;;5029193;28;20050;-85
2023/09/18 12:00:47;;;;;;;3.40;1.63;;;21.70;90.30;;;;;;5043245;28;20057;-84
2023/09/18 12:03:27;;;;;;;3.00;1.38;;;21.70;90.30;;;;;;5036929;28;20128;-87
2023/09/18 12:06:01;;;;;;;2.38;1.38;;;21.70;90.40;;;;;;5045727;28;20049;-84
2023/09/18 12:08:32;;;;;;;3.20;1.42;;;21.80;90.40;;;;;;5031222;28;20045;-81
2023/09/18 12:11:05;;;;;;;3.17;1.30;;;21.90;90.40;;;;;;5028845;28;20503;-84
2023/09/18 12:13:32;;;;;;;4.30;1.60;;;22.00;90.30;;;;;;5045792;28;20127;-93
2023/09/18 12:16:06;;;;;;;3.92;2.55;;;22.20;90.20;;;;;;5043527;28;20090;-90
2023/09/18 12:18:37;;;;;;;4.47;2.15;;;22.40;88.50;;;;;;5043393;28;20036;-90
2023/09/18 12:21:06;;;;;;;;;;;22.50;87.30;;;;;;5048465;28;20037;-90
2023/09/18 12:23:42;;;;;;;2.60;1.60;;;22.60;87.50;;;;;;5035585;28;19968;-88
2023/09/18 12:26:15;;;;;;;4.05;2.13;;;22.60;87.50;;;;;;5021037;28;20476;-85
2023/09/18 12:28:43;;;;;;;2.83;1.65;;;22.60;87.20;;;;;;5048487;28;20069;-84
2023/09/18 12:31:18;;;;;;;4.28;1.60;;;22.60;87.00;;;;;;5042435;28;20068;-88
2023/09/18 12:33:48;;;;;;;3.38;2.00;;;22.60;87.10;;;;;;5030082;28;20388;-85
2023/09/18 12:36:19;;;;;;;2.63;1.50;;;22.60;87.30;;;;;;5029470;28;20145;-86
2023/09/18 12:39:10;;;;;;;2.33;1.60;;;22.70;87.40;;;;;;5032425;28;20041;-86
2023/09/18 12:41:49;;;;;;;3.10;1.42;;;22.70;87.20;;;;;;5004814;28;20057;-88
2023/09/18 12:44:19;;;;;;;3.00;1.92;;;22.80;87.40;;;;;;5036044;28;20548;-87
2023/09/18 12:46:52;;;;;;;3.05;1.48;;;22.90;86.20;;;;;;5012718;28;20045;-89
2023/09/18 12:49:31;;;;;;;2.35;1.33;;;23.00;86.40;;;;;;5033995;28;20052;-89
2023/09/18 12:52:08;;;;;;;3.80;1.77;;;23.00;86.40;;;;;;5027328;28;20503;-86
2023/09/18 12:54:44;;;;;;;5.03;1.80;;;22.90;86.20;;;;;;5032769;28;20048;-88
2023/09/18 12:57:18;;;;;;;2.42;1.40;;;22.90;86.20;;;;;;5048528;28;20483;-87
2023/09/18 12:59:51;;;;;;;2.22;1.50;;;22.90;86.40;;;;;;5045681;28;20128;-88
2023/09/18 13:02:21;;;;;;;6.32;1.58;;;22.90;85.80;;;;;;5028970;28;20149;-86
2023/09/18 13:04:58;;;;;;;4.00;1.75;;;22.90;85.00;;;;;;5040283;28;20036;-86
2023/09/18 13:07:27;;;;;;;2.80;1.60;;;22.90;85.30;;;;;;5036310;28;20098;-86
2023/09/18 13:10:10;;;;;;;2.78;1.20;;;22.90;85.50;;;;;;5037988;28;20091;-83
2023/09/18 13:12:41;;;;;;;3.92;1.50;;;22.90;85.40;;;;;;5041335;28;20046;-85
2023/09/18 13:18:46;;;;;;;2.78;1.70;;;23.10;83.30;;;;;;4969435;28;20089;-84
2023/09/18 13:21:17;;;;;;;3.83;1.00;;;23.20;82.80;;;;;;5045543;28;20048;-89
2023/09/18 13:23:44;;;;;;;2.10;1.20;;;23.30;83.00;;;;;;5052972;28;20044;-92
2023/09/18 13:26:13;;;;;;;3.67;1.40;;;23.30;82.90;;;;;;5045626;28;20503;-89
2023/09/18 13:28:42;;;;;;;3.75;1.35;;;23.40;81.60;;;;;;5033040;28;20056;-88
2023/09/18 13:31:10;;;;;;;3.75;1.70;;;23.40;81.80;;;;;;5032260;28;20138;-88
2023/09/18 13:33:40;;;;;;;2.25;1.25;;;23.40;81.50;;;;;;5050482;28;20053;-89
2023/09/18 13:36:11;;;;;;;2.05;1.10;;;23.50;81.60;;;;;;5016348;28;20046;-91
2023/09/18 13:38:41;;;;;;;2.22;1.10;;;23.50;81.40;;;;;;5027086;28;20042;-88
2023/09/18 13:41:08;;;;;;;2.05;1.00;;;23.60;81.30;;;;;;5032643;28;20112;-88
2023/09/18 13:43:35;;;;;;;1.63;0.80;;;23.70;80.90;;;;;;5026089;28;20056;-89
2023/09/18 13:46:06;;;;;;;2.35;0.90;;;23.80;80.50;;;;;;5019912;28;20045;-89
2023/09/18 13:48:33;;;;;;;1.70;0.90;;;23.80;81.00;;;;;;5055334;28;20045;-89
2023/09/18 13:51:03;;;;;;;3.33;0.70;;;23.80;80.60;;;;;;5044006;28;20135;-89
2023/09/18 13:53:33;;;;;;;1.58;0.80;;;23.80;80.70;;;;;;5037933;28;20086;-88
2023/09/18 13:56:04;;;;;;;1.48;0.75;;;23.70;81.30;;;;;;5025367;28;20504;-89
2023/09/18 13:58:31;;;;;;;1.70;0.70;;;23.70;81.80;;;;;;5026720;28;20041;-88
2023/09/18 14:01:52;;;;;;;1.75;0.80;;;23.60;81.30;;;;;;5003358;28;20499;-91
2023/09/18 14:04:29;;;;;;;3.10;0.93;;;23.70;80.70;;;;;;5026925;28;20069;-84
2023/09/18 14:06:56;;;;;;;2.05;1.00;;;23.60;80.50;;;;;;5032772;28;20487;-84
2023/09/18 14:09:23;;;;;;;1.75;0.70;;;23.70;80.80;;;;;;5058371;28;20491;-84
2023/09/18 14:11:51;;;;;;;1.80;0.80;;;23.70;80.70;;;;;;5036110;28;20038;-84
2023/09/18 14:14:18;;;;;;;1.33;0.90;;;23.70;80.80;;;;;;5018047;28;20080;-84
2023/09/18 14:16:45;;;;;;;1.83;0.75;;;23.70;80.80;;;;;;5016327;28;20045;-86
2023/09/18 14:19:21;;;;;;;1.70;1.00;;;23.70;80.50;;;;;;5019840;28;20049;-84
2023/09/18 14:22:33;;;;;;;1.55;0.80;;;23.80;79.50;;;;;;5002143;28;20046;-82
2023/09/18 14:29:49;;;;;;;2.88;0.88;;;23.70;79.80;;;;;;5029198;28;20040;-84
2023/09/18 14:32:24;;;;;;;1.45;0.70;;;23.60;79.70;;;;;;5032311;28;20514;-82